Terminal Aerodrome Forecast
Issued by NWS Lake Charles, LA

Home | Current Version | Previous Version | Text Only | Print | Product List | Glossary On
Versions: 1 2 3 4 5 6 7 8 9 10 11 12 13 14 15 16 17 18 19 20 21 22 23
860
FTUS44 KLCH 300520
TAFBPT
TAF
KBPT 300520Z 3006/0106 16015KT P6SM VCSH BKN015
     FM301000 17014KT P6SM VCTS SCT007 BKN015CB
      TEMPO 3012/3016 2SM TSRA BR
     FM301600 19011KT P6SM VCTS SCT015 BKN025CB
      TEMPO 3016/3020 2SM TSRA BR=

USA.gov is the U.S. government's official web portal to all federal, state and local government web resources and services.